sensor_id;sensor_type;location;lat;lon;timestamp;P1;durP1;ratioP1;P2;durP2;ratioP2
65130;SDS011;51709;54.912;8.316;2022-11-06T00:01:47;15.38;;;6.93;;
65130;SDS011;51709;54.912;8.316;2022-11-06T00:07:07;25.45;;;7.35;;
65130;SDS011;51709;54.912;8.316;2022-11-06T00:12:28;24.55;;;8.07;;
65130;SDS011;51709;54.912;8.316;2022-11-06T00:17:49;22.55;;;7.82;;
65130;SDS011;51709;54.912;8.316;2022-11-06T00:23:09;23.00;;;7.93;;
65130;SDS011;51709;54.912;8.316;2022-11-06T00:28:30;18.67;;;8.27;;
65130;SDS011;51709;54.912;8.316;2022-11-06T00:33:51;16.00;;;6.32;;
65130;SDS011;51709;54.912;8.316;2022-11-06T00:39:13;18.90;;;8.20;;
65130;SDS011;51709;54.912;8.316;2022-11-06T00:44:33;29.42;;;8.20;;
65130;SDS011;51709;54.912;8.316;2022-11-06T00:49:53;26.75;;;9.73;;
65130;SDS011;51709;54.912;8.316;2022-11-06T00:55:14;17.20;;;7.93;;
65130;SDS011;51709;54.912;8.316;2022-11-06T01:00:35;26.88;;;9.30;;
65130;SDS011;51709;54.912;8.316;2022-11-06T01:05:55;21.10;;;8.77;;
65130;SDS011;51709;54.912;8.316;2022-11-06T01:11:24;21.75;;;7.10;;
65130;SDS011;51709;54.912;8.316;2022-11-06T01:16:53;22.63;;;8.55;;
65130;SDS011;51709;54.912;8.316;2022-11-06T01:22:14;19.90;;;7.93;;
65130;SDS011;51709;54.912;8.316;2022-11-06T01:27:35;24.60;;;8.38;;
65130;SDS011;51709;54.912;8.316;2022-11-06T01:32:55;29.55;;;9.23;;
65130;SDS011;51709;54.912;8.316;2022-11-06T01:38:16;29.05;;;9.90;;
65130;SDS011;51709;54.912;8.316;2022-11-06T01:49:10;23.00;;;7.90;;
65130;SDS011;51709;54.912;8.316;2022-11-06T01:54:33;24.45;;;8.25;;
65130;SDS011;51709;54.912;8.316;2022-11-06T01:59:57;24.52;;;8.38;;
65130;SDS011;51709;54.912;8.316;2022-11-06T02:05:18;32.70;;;8.90;;
65130;SDS011;51709;54.912;8.316;2022-11-06T02:10:40;22.88;;;9.90;;
65130;SDS011;51709;54.912;8.316;2022-11-06T02:22:16;18.38;;;8.85;;
65130;SDS011;51709;54.912;8.316;2022-11-06T02:27:38;37.65;;;9.02;;
65130;SDS011;51709;54.912;8.316;2022-11-06T02:33:04;31.17;;;8.65;;
65130;SDS011;51709;54.912;8.316;2022-11-06T02:38:31;26.85;;;9.07;;
65130;SDS011;51709;54.912;8.316;2022-11-06T02:43:59;17.27;;;8.43;;
65130;SDS011;51709;54.912;8.316;2022-11-06T02:54:51;31.48;;;8.93;;
65130;SDS011;51709;54.912;8.316;2022-11-06T03:00:23;20.50;;;8.27;;
65130;SDS011;51709;54.912;8.316;2022-11-06T03:11:35;23.63;;;8.50;;
65130;SDS011;51709;54.912;8.316;2022-11-06T03:17:04;36.50;;;8.00;;
65130;SDS011;51709;54.912;8.316;2022-11-06T03:22:40;35.80;;;9.10;;
65130;SDS011;51709;54.912;8.316;2022-11-06T03:28:18;21.33;;;8.30;;
65130;SDS011;51709;54.912;8.316;2022-11-06T03:34:00;34.67;;;9.93;;
65130;SDS011;51709;54.912;8.316;2022-11-06T03:39:31;24.75;;;9.02;;
65130;SDS011;51709;54.912;8.316;2022-11-06T03:44:59;36.10;;;9.27;;
65130;SDS011;51709;54.912;8.316;2022-11-06T03:50:25;22.63;;;9.40;;
65130;SDS011;51709;54.912;8.316;2022-11-06T03:55:51;16.05;;;8.23;;
65130;SDS011;51709;54.912;8.316;2022-11-06T04:01:25;22.55;;;8.90;;
65130;SDS011;51709;54.912;8.316;2022-11-06T04:12:18;23.60;;;7.82;;
65130;SDS011;51709;54.912;8.316;2022-11-06T04:18:01;16.88;;;7.05;;
65130;SDS011;51709;54.912;8.316;2022-11-06T04:23:43;28.90;;;9.07;;
65130;SDS011;51709;54.912;8.316;2022-11-06T04:29:50;27.95;;;7.72;;
65130;SDS011;51709;54.912;8.316;2022-11-06T04:46:33;22.40;;;8.73;;
65130;SDS011;51709;54.912;8.316;2022-11-06T04:51:58;28.02;;;9.75;;
65130;SDS011;51709;54.912;8.316;2022-11-06T04:57:22;24.98;;;9.55;;
65130;SDS011;51709;54.912;8.316;2022-11-06T05:02:44;41.55;;;9.77;;
65130;SDS011;51709;54.912;8.316;2022-11-06T05:08:05;29.45;;;9.90;;
65130;SDS011;51709;54.912;8.316;2022-11-06T05:13:27;23.90;;;8.95;;
65130;SDS011;51709;54.912;8.316;2022-11-06T05:18:48;44.28;;;9.02;;
65130;SDS011;51709;54.912;8.316;2022-11-06T05:24:09;26.80;;;7.90;;
65130;SDS011;51709;54.912;8.316;2022-11-06T05:29:29;17.40;;;7.80;;
65130;SDS011;51709;54.912;8.316;2022-11-06T05:34:50;27.83;;;8.75;;
65130;SDS011;51709;54.912;8.316;2022-11-06T05:40:11;32.58;;;10.65;;
65130;SDS011;51709;54.912;8.316;2022-11-06T05:45:32;30.58;;;10.60;;
65130;SDS011;51709;54.912;8.316;2022-11-06T05:50:53;26.95;;;9.88;;
65130;SDS011;51709;54.912;8.316;2022-11-06T05:56:19;26.67;;;10.65;;
65130;SDS011;51709;54.912;8.316;2022-11-06T06:01:39;27.42;;;9.88;;
65130;SDS011;51709;54.912;8.316;2022-11-06T06:07:00;27.50;;;8.05;;
65130;SDS011;51709;54.912;8.316;2022-11-06T06:12:20;18.15;;;6.80;;
65130;SDS011;51709;54.912;8.316;2022-11-06T06:17:44;26.40;;;7.95;;
65130;SDS011;51709;54.912;8.316;2022-11-06T06:23:08;23.13;;;7.30;;
65130;SDS011;51709;54.912;8.316;2022-11-06T06:28:28;18.80;;;8.82;;
65130;SDS011;51709;54.912;8.316;2022-11-06T06:33:49;30.15;;;6.65;;
65130;SDS011;51709;54.912;8.316;2022-11-06T06:39:10;12.20;;;5.80;;
65130;SDS011;51709;54.912;8.316;2022-11-06T06:44:31;11.90;;;5.10;;
65130;SDS011;51709;54.912;8.316;2022-11-06T06:49:51;14.70;;;4.53;;
65130;SDS011;51709;54.912;8.316;2022-11-06T06:55:13;24.90;;;4.85;;
65130;SDS011;51709;54.912;8.316;2022-11-06T07:00:34;15.48;;;5.15;;
65130;SDS011;51709;54.912;8.316;2022-11-06T07:05:57;12.00;;;4.43;;
65130;SDS011;51709;54.912;8.316;2022-11-06T07:11:19;16.97;;;5.77;;
65130;SDS011;51709;54.912;8.316;2022-11-06T07:16:39;18.85;;;5.82;;
65130;SDS011;51709;54.912;8.316;2022-11-06T07:22:00;23.20;;;8.30;;
65130;SDS011;51709;54.912;8.316;2022-11-06T07:27:21;22.60;;;6.22;;
65130;SDS011;51709;54.912;8.316;2022-11-06T07:32:41;16.80;;;6.35;;
65130;SDS011;51709;54.912;8.316;2022-11-06T07:38:03;16.65;;;5.60;;
65130;SDS011;51709;54.912;8.316;2022-11-06T07:43:25;15.82;;;6.15;;
65130;SDS011;51709;54.912;8.316;2022-11-06T07:48:46;14.73;;;6.07;;
65130;SDS011;51709;54.912;8.316;2022-11-06T07:54:09;9.93;;;4.63;;
65130;SDS011;51709;54.912;8.316;2022-11-06T07:59:32;16.83;;;5.43;;
65130;SDS011;51709;54.912;8.316;2022-11-06T08:04:53;13.95;;;6.70;;
65130;SDS011;51709;54.912;8.316;2022-11-06T08:10:14;16.23;;;7.75;;
65130;SDS011;51709;54.912;8.316;2022-11-06T08:15:36;29.27;;;10.05;;
65130;SDS011;51709;54.912;8.316;2022-11-06T08:20:57;22.27;;;8.82;;
65130;SDS011;51709;54.912;8.316;2022-11-06T08:26:18;25.45;;;8.10;;
65130;SDS011;51709;54.912;8.316;2022-11-06T08:31:39;13.35;;;4.93;;
65130;SDS011;51709;54.912;8.316;2022-11-06T08:36:59;10.57;;;5.47;;
65130;SDS011;51709;54.912;8.316;2022-11-06T08:42:20;17.52;;;6.07;;
65130;SDS011;51709;54.912;8.316;2022-11-06T08:47:41;18.23;;;9.05;;
65130;SDS011;51709;54.912;8.316;2022-11-06T08:53:02;20.10;;;10.07;;
65130;SDS011;51709;54.912;8.316;2022-11-06T08:58:25;29.80;;;10.45;;
65130;SDS011;51709;54.912;8.316;2022-11-06T09:03:46;23.98;;;11.73;;
65130;SDS011;51709;54.912;8.316;2022-11-06T09:09:07;25.70;;;10.45;;
65130;SDS011;51709;54.912;8.316;2022-11-06T09:14:28;25.98;;;10.82;;
65130;SDS011;51709;54.912;8.316;2022-11-06T09:19:49;22.65;;;8.57;;
65130;SDS011;51709;54.912;8.316;2022-11-06T09:25:10;28.33;;;11.57;;
65130;SDS011;51709;54.912;8.316;2022-11-06T09:30:32;32.03;;;9.90;;
65130;SDS011;51709;54.912;8.316;2022-11-06T09:35:54;24.60;;;10.20;;
65130;SDS011;51709;54.912;8.316;2022-11-06T09:41:22;22.70;;;9.23;;
65130;SDS011;51709;54.912;8.316;2022-11-06T09:46:54;33.45;;;9.70;;
65130;SDS011;51709;54.912;8.316;2022-11-06T09:57:43;25.80;;;7.78;;
65130;SDS011;51709;54.912;8.316;2022-11-06T10:03:18;23.73;;;7.60;;
65130;SDS011;51709;54.912;8.316;2022-11-06T10:09:00;27.40;;;9.43;;
65130;SDS011;51709;54.912;8.316;2022-11-06T10:14:26;19.92;;;7.03;;
65130;SDS011;51709;54.912;8.316;2022-11-06T10:19:56;21.67;;;7.55;;
65130;SDS011;51709;54.912;8.316;2022-11-06T10:25:42;17.38;;;6.78;;
65130;SDS011;51709;54.912;8.316;2022-11-06T10:31:30;28.90;;;7.25;;
65130;SDS011;51709;54.912;8.316;2022-11-06T10:42:38;25.95;;;7.18;;
65130;SDS011;51709;54.912;8.316;2022-11-06T10:48:01;15.88;;;5.97;;
65130;SDS011;51709;54.912;8.316;2022-11-06T10:53:46;20.42;;;5.80;;
65130;SDS011;51709;54.912;8.316;2022-11-06T10:59:21;10.50;;;5.35;;
65130;SDS011;51709;54.912;8.316;2022-11-06T11:04:41;16.38;;;5.50;;
65130;SDS011;51709;54.912;8.316;2022-11-06T11:15:43;13.02;;;4.30;;
65130;SDS011;51709;54.912;8.316;2022-11-06T11:26:48;13.27;;;4.00;;
65130;SDS011;51709;54.912;8.316;2022-11-06T11:32:15;19.67;;;5.47;;
65130;SDS011;51709;54.912;8.316;2022-11-06T11:37:39;12.77;;;4.22;;
65130;SDS011;51709;54.912;8.316;2022-11-06T11:43:14;10.27;;;3.90;;
65130;SDS011;51709;54.912;8.316;2022-11-06T11:48:43;17.95;;;4.72;;
65130;SDS011;51709;54.912;8.316;2022-11-06T11:59:33;13.57;;;3.65;;
65130;SDS011;51709;54.912;8.316;2022-11-06T12:05:07;8.95;;;2.88;;
65130;SDS011;51709;54.912;8.316;2022-11-06T12:10:42;7.45;;;2.80;;
65130;SDS011;51709;54.912;8.316;2022-11-06T12:16:05;6.13;;;1.70;;
65130;SDS011;51709;54.912;8.316;2022-11-06T12:21:33;6.85;;;1.88;;
65130;SDS011;51709;54.912;8.316;2022-11-06T12:27:01;4.95;;;1.73;;
65130;SDS011;51709;54.912;8.316;2022-11-06T12:32:36;9.30;;;2.08;;
65130;SDS011;51709;54.912;8.316;2022-11-06T12:43:30;16.77;;;3.17;;
65130;SDS011;51709;54.912;8.316;2022-11-06T12:49:10;8.63;;;2.63;;
65130;SDS011;51709;54.912;8.316;2022-11-06T13:00:22;10.30;;;4.03;;
65130;SDS011;51709;54.912;8.316;2022-11-06T13:05:57;10.40;;;4.07;;
65130;SDS011;51709;54.912;8.316;2022-11-06T13:17:15;13.77;;;4.18;;
65130;SDS011;51709;54.912;8.316;2022-11-06T13:28:21;19.30;;;4.70;;
65130;SDS011;51709;54.912;8.316;2022-11-06T13:33:51;14.13;;;3.70;;
65130;SDS011;51709;54.912;8.316;2022-11-06T13:39:38;15.90;;;4.55;;
65130;SDS011;51709;54.912;8.316;2022-11-06T13:45:00;13.13;;;4.97;;
65130;SDS011;51709;54.912;8.316;2022-11-06T13:50:43;15.52;;;5.82;;
65130;SDS011;51709;54.912;8.316;2022-11-06T13:56:42;25.48;;;7.18;;
65130;SDS011;51709;54.912;8.316;2022-11-06T14:02:28;18.05;;;7.53;;
65130;SDS011;51709;54.912;8.316;2022-11-06T14:08:01;12.45;;;5.57;;
65130;SDS011;51709;54.912;8.316;2022-11-06T14:13:28;12.80;;;5.50;;
65130;SDS011;51709;54.912;8.316;2022-11-06T14:18:55;14.65;;;6.70;;
65130;SDS011;51709;54.912;8.316;2022-11-06T14:40:49;20.50;;;5.68;;
65130;SDS011;51709;54.912;8.316;2022-11-06T14:46:17;14.43;;;4.45;;
65130;SDS011;51709;54.912;8.316;2022-11-06T14:51:42;14.43;;;5.53;;
65130;SDS011;51709;54.912;8.316;2022-11-06T14:57:03;5.43;;;3.63;;
65130;SDS011;51709;54.912;8.316;2022-11-06T15:02:25;4.07;;;3.10;;
65130;SDS011;51709;54.912;8.316;2022-11-06T15:13:28;20.85;;;4.15;;
65130;SDS011;51709;54.912;8.316;2022-11-06T15:18:50;16.10;;;3.95;;
65130;SDS011;51709;54.912;8.316;2022-11-06T15:24:13;11.13;;;3.80;;
65130;SDS011;51709;54.912;8.316;2022-11-06T15:29:39;16.63;;;4.13;;
65130;SDS011;51709;54.912;8.316;2022-11-06T15:35:03;14.32;;;3.88;;
65130;SDS011;51709;54.912;8.316;2022-11-06T15:40:33;11.85;;;3.10;;
65130;SDS011;51709;54.912;8.316;2022-11-06T15:51:27;13.23;;;3.85;;
65130;SDS011;51709;54.912;8.316;2022-11-06T15:56:48;23.60;;;4.88;;
65130;SDS011;51709;54.912;8.316;2022-11-06T16:02:21;9.10;;;2.90;;
65130;SDS011;51709;54.912;8.316;2022-11-06T16:07:42;16.13;;;4.10;;
65130;SDS011;51709;54.912;8.316;2022-11-06T16:13:04;13.20;;;4.07;;
65130;SDS011;51709;54.912;8.316;2022-11-06T16:18:39;13.25;;;4.07;;
65130;SDS011;51709;54.912;8.316;2022-11-06T16:24:03;11.38;;;3.92;;
65130;SDS011;51709;54.912;8.316;2022-11-06T16:29:31;15.65;;;3.72;;
65130;SDS011;51709;54.912;8.316;2022-11-06T16:34:52;8.88;;;3.03;;
65130;SDS011;51709;54.912;8.316;2022-11-06T16:40:40;19.70;;;3.88;;
65130;SDS011;51709;54.912;8.316;2022-11-06T16:46:08;9.45;;;3.55;;
65130;SDS011;51709;54.912;8.316;2022-11-06T16:51:30;17.45;;;4.18;;
65130;SDS011;51709;54.912;8.316;2022-11-06T16:56:52;14.40;;;4.35;;
65130;SDS011;51709;54.912;8.316;2022-11-06T17:02:19;9.45;;;4.22;;
65130;SDS011;51709;54.912;8.316;2022-11-06T17:07:42;17.65;;;5.35;;
65130;SDS011;51709;54.912;8.316;2022-11-06T17:13:48;11.88;;;4.20;;
65130;SDS011;51709;54.912;8.316;2022-11-06T17:18:52;11.80;;;5.00;;
65130;SDS011;51709;54.912;8.316;2022-11-06T17:24:12;16.48;;;4.90;;
65130;SDS011;51709;54.912;8.316;2022-11-06T17:29:56;16.67;;;5.35;;
65130;SDS011;51709;54.912;8.316;2022-11-06T17:35:17;15.98;;;5.15;;
65130;SDS011;51709;54.912;8.316;2022-11-06T17:40:37;13.45;;;4.53;;
65130;SDS011;51709;54.912;8.316;2022-11-06T17:45:58;13.65;;;3.75;;
65130;SDS011;51709;54.912;8.316;2022-11-06T17:51:21;12.60;;;3.17;;
65130;SDS011;51709;54.912;8.316;2022-11-06T17:57:05;13.30;;;3.78;;
65130;SDS011;51709;54.912;8.316;2022-11-06T18:02:27;13.02;;;4.32;;
65130;SDS011;51709;54.912;8.316;2022-11-06T18:08:10;15.05;;;3.28;;
65130;SDS011;51709;54.912;8.316;2022-11-06T18:18:54;5.80;;;2.85;;
65130;SDS011;51709;54.912;8.316;2022-11-06T18:24:15;9.13;;;2.85;;
65130;SDS011;51709;54.912;8.316;2022-11-06T18:29:36;7.70;;;3.20;;
65130;SDS011;51709;54.912;8.316;2022-11-06T18:34:57;11.18;;;3.08;;
65130;SDS011;51709;54.912;8.316;2022-11-06T18:40:18;8.10;;;2.67;;
65130;SDS011;51709;54.912;8.316;2022-11-06T18:45:38;12.70;;;2.95;;
65130;SDS011;51709;54.912;8.316;2022-11-06T18:56:31;12.57;;;4.10;;
65130;SDS011;51709;54.912;8.316;2022-11-06T19:01:53;9.98;;;2.80;;
65130;SDS011;51709;54.912;8.316;2022-11-06T19:07:14;12.95;;;2.78;;
65130;SDS011;51709;54.912;8.316;2022-11-06T19:12:35;13.25;;;3.30;;
65130;SDS011;51709;54.912;8.316;2022-11-06T19:17:56;12.57;;;4.32;;
65130;SDS011;51709;54.912;8.316;2022-11-06T19:23:16;9.35;;;3.35;;
65130;SDS011;51709;54.912;8.316;2022-11-06T19:28:38;20.95;;;3.45;;
65130;SDS011;51709;54.912;8.316;2022-11-06T19:33:59;17.05;;;5.07;;
65130;SDS011;51709;54.912;8.316;2022-11-06T19:39:21;12.55;;;3.53;;
65130;SDS011;51709;54.912;8.316;2022-11-06T19:44:41;9.05;;;3.67;;
65130;SDS011;51709;54.912;8.316;2022-11-06T19:50:02;14.68;;;4.40;;
65130;SDS011;51709;54.912;8.316;2022-11-06T19:55:23;14.18;;;4.18;;
65130;SDS011;51709;54.912;8.316;2022-11-06T20:00:47;18.77;;;4.22;;
65130;SDS011;51709;54.912;8.316;2022-11-06T20:06:08;15.32;;;4.80;;
65130;SDS011;51709;54.912;8.316;2022-11-06T20:11:54;14.98;;;4.35;;
65130;SDS011;51709;54.912;8.316;2022-11-06T20:17:16;20.08;;;4.75;;
65130;SDS011;51709;54.912;8.316;2022-11-06T20:22:38;13.95;;;3.95;;
65130;SDS011;51709;54.912;8.316;2022-11-06T20:27:58;15.88;;;3.67;;
65130;SDS011;51709;54.912;8.316;2022-11-06T20:33:19;15.50;;;2.60;;
65130;SDS011;51709;54.912;8.316;2022-11-06T20:38:40;16.58;;;4.25;;
65130;SDS011;51709;54.912;8.316;2022-11-06T20:44:02;23.10;;;3.03;;
65130;SDS011;51709;54.912;8.316;2022-11-06T20:49:22;7.85;;;3.10;;
65130;SDS011;51709;54.912;8.316;2022-11-06T20:54:43;12.60;;;3.20;;
65130;SDS011;51709;54.912;8.316;2022-11-06T21:00:07;14.82;;;2.78;;
65130;SDS011;51709;54.912;8.316;2022-11-06T21:05:28;13.57;;;3.53;;
65130;SDS011;51709;54.912;8.316;2022-11-06T21:10:55;14.48;;;3.40;;
65130;SDS011;51709;54.912;8.316;2022-11-06T21:16:26;8.43;;;2.33;;
65130;SDS011;51709;54.912;8.316;2022-11-06T21:21:50;14.25;;;3.17;;
65130;SDS011;51709;54.912;8.316;2022-11-06T21:27:11;14.65;;;2.97;;
65130;SDS011;51709;54.912;8.316;2022-11-06T21:32:32;14.00;;;3.00;;
65130;SDS011;51709;54.912;8.316;2022-11-06T21:37:53;12.93;;;2.92;;
65130;SDS011;51709;54.912;8.316;2022-11-06T21:43:13;13.15;;;2.70;;
65130;SDS011;51709;54.912;8.316;2022-11-06T21:48:35;13.23;;;3.17;;
65130;SDS011;51709;54.912;8.316;2022-11-06T21:54:12;10.45;;;3.08;;
65130;SDS011;51709;54.912;8.316;2022-11-06T21:59:51;15.15;;;3.58;;
65130;SDS011;51709;54.912;8.316;2022-11-06T22:05:12;9.80;;;2.70;;
65130;SDS011;51709;54.912;8.316;2022-11-06T22:10:33;15.40;;;2.78;;
65130;SDS011;51709;54.912;8.316;2022-11-06T22:15:53;14.23;;;4.35;;
65130;SDS011;51709;54.912;8.316;2022-11-06T22:21:15;17.90;;;3.50;;
65130;SDS011;51709;54.912;8.316;2022-11-06T22:26:38;12.57;;;3.97;;
65130;SDS011;51709;54.912;8.316;2022-11-06T22:31:59;20.20;;;3.83;;
65130;SDS011;51709;54.912;8.316;2022-11-06T22:37:19;14.32;;;4.80;;
65130;SDS011;51709;54.912;8.316;2022-11-06T22:42:40;11.02;;;4.18;;
65130;SDS011;51709;54.912;8.316;2022-11-06T22:48:04;7.70;;;3.97;;
65130;SDS011;51709;54.912;8.316;2022-11-06T22:53:24;29.05;;;4.60;;
65130;SDS011;51709;54.912;8.316;2022-11-06T22:58:45;7.38;;;3.38;;
65130;SDS011;51709;54.912;8.316;2022-11-06T23:04:07;14.50;;;3.13;;
65130;SDS011;51709;54.912;8.316;2022-11-06T23:09:34;11.70;;;3.15;;
65130;SDS011;51709;54.912;8.316;2022-11-06T23:14:55;22.55;;;3.80;;
65130;SDS011;51709;54.912;8.316;2022-11-06T23:20:18;12.77;;;5.05;;
65130;SDS011;51709;54.912;8.316;2022-11-06T23:25:39;18.73;;;4.70;;
65130;SDS011;51709;54.912;8.316;2022-11-06T23:31:04;19.27;;;4.88;;
65130;SDS011;51709;54.912;8.316;2022-11-06T23:36:26;13.32;;;4.68;;
65130;SDS011;51709;54.912;8.316;2022-11-06T23:41:46;24.35;;;4.35;;
65130;SDS011;51709;54.912;8.316;2022-11-06T23:47:06;15.98;;;6.22;;
65130;SDS011;51709;54.912;8.316;2022-11-06T23:52:27;17.52;;;5.60;;
65130;SDS011;51709;54.912;8.316;2022-11-06T23:57:48;19.05;;;5.65;;
